Time;durP1;ratioP1;P1;durP2;ratioP2;P2;SDS_P1;SDS_P2;PMS_P1;PMS_P2;Temp;Humidity;BMP_temperature;BMP_pressure;BME280_temperature;BME280_humidity;BME280_pressure;Samples;Min_cycle;Max_cycle;Signal;HPM_P1;HPM_P2
2022/10/07 00:01:53;;;;;;;17.30;5.82;;;;;;;8.21;100.00;102683.78;5339425;27;20118;-88
2022/10/07 00:04:24;;;;;;;18.88;5.22;;;;;;;8.27;100.00;102696.72;5338207;27;20028;-87
2022/10/07 00:06:55;;;;;;;16.73;5.30;;;;;;;8.13;100.00;102684.19;5342661;27;20397;-90
2022/10/07 00:09:26;;;;;;;18.67;5.03;;;;;;;8.12;100.00;102678.94;5322536;27;20031;-88
2022/10/07 00:11:58;;;;;;;17.63;5.18;;;;;;;8.12;100.00;102684.28;5336582;27;20032;-90
2022/10/07 00:14:30;;;;;;;16.10;5.18;;;;;;;8.05;100.00;102682.88;5342164;27;20086;-89
2022/10/07 00:17:01;;;;;;;18.20;5.75;;;;;;;8.03;100.00;102687.38;5343580;27;20035;-89
2022/10/07 00:19:32;;;;;;;16.55;5.35;;;;;;;7.97;100.00;102683.25;5344786;27;20072;-90
2022/10/07 00:22:04;;;;;;;16.30;5.35;;;;;;;7.88;100.00;102678.44;5329017;27;20370;-90
2022/10/07 00:24:35;;;;;;;17.88;5.55;;;;;;;7.89;100.00;102675.72;5345666;27;20070;-89
2022/10/07 00:27:06;;;;;;;18.42;5.30;;;;;;;7.88;100.00;102671.31;5331048;27;20035;-90
2022/10/07 00:29:37;;;;;;;21.58;5.80;;;;;;;7.85;100.00;102674.13;5351578;27;20046;-90
2022/10/07 00:32:09;;;;;;;19.27;6.03;;;;;;;7.84;100.00;102679.56;5347864;27;20100;-90
2022/10/07 00:34:40;;;;;;;19.77;5.63;;;;;;;7.84;100.00;102675.09;5344846;27;20031;-89
2022/10/07 00:37:11;;;;;;;18.50;5.15;;;;;;;7.84;100.00;102666.25;5350414;27;20027;-90
2022/10/07 00:39:43;;;;;;;19.65;5.93;;;;;;;7.84;100.00;102661.81;5353632;27;20470;-90
2022/10/07 00:42:14;;;;;;;21.55;5.55;;;;;;;7.78;100.00;102653.28;5350461;27;20035;-89
2022/10/07 00:44:47;;;;;;;13.73;5.05;;;;;;;7.82;100.00;102660.16;5341529;27;20035;-90
2022/10/07 00:47:24;;;;;;;15.00;4.90;;;;;;;7.81;100.00;102669.06;5325365;27;20032;-88
2022/10/07 00:50:35;;;;;;;13.73;4.78;;;;;;;7.73;100.00;102670.34;5342622;27;20446;-88
2022/10/07 00:53:08;;;;;;;21.80;5.43;;;;;;;7.74;100.00;102665.88;5319698;27;20192;-89
2022/10/07 00:55:41;;;;;;;19.65;5.38;;;;;;;7.70;100.00;102659.84;5339322;27;20024;-89
2022/10/07 00:58:13;;;;;;;28.98;5.20;;;;;;;7.71;100.00;102656.28;5341256;27;20058;-89
2022/10/07 01:00:45;;;;;;;20.08;5.50;;;;;;;7.68;100.00;102656.44;5324806;27;20024;-89
2022/10/07 01:03:17;;;;;;;16.23;5.82;;;;;;;7.67;100.00;102646.72;5339603;27;20020;-90
2022/10/07 01:05:49;;;;;;;19.30;4.80;;;;;;;7.67;100.00;102649.38;5340291;27;20435;-90
2022/10/07 01:08:22;;;;;;;21.95;6.13;;;;;;;7.60;100.00;102637.38;5335354;27;20020;-90
2022/10/07 01:11:14;;;;;;;25.35;5.47;;;;;;;7.69;100.00;102642.19;5341118;27;20404;-89
2022/10/07 01:13:54;;;;;;;17.02;5.97;;;;;;;7.71;100.00;102643.00;5336531;27;20020;-90
2022/10/07 01:16:51;;;;;;;18.33;6.10;;;;;;;7.68;100.00;102636.94;5335991;27;20605;-89
2022/10/07 01:19:57;;;;;;;15.10;4.97;;;;;;;7.63;100.00;102631.06;5336478;27;20024;-89
2022/10/07 01:22:37;;;;;;;21.60;5.97;;;;;;;7.56;100.00;102630.50;5339041;27;20039;-89
2022/10/07 01:25:51;;;;;;;25.52;4.95;;;;;;;7.46;100.00;102622.13;5342384;27;20050;-89
2022/10/07 01:28:30;;;;;;;14.68;5.63;;;;;;;7.48;100.00;102628.22;5330942;27;20164;-89
2022/10/07 01:31:05;;;;;;;19.35;6.03;;;;;;;7.37;100.00;102614.66;5325662;27;20412;-90
2022/10/07 01:33:39;;;;;;;20.58;5.65;;;;;;;7.39;100.00;102613.63;5315088;27;20024;-90
2022/10/07 01:36:14;;;;;;;24.60;5.32;;;;;;;7.42;100.00;102617.09;5336936;27;20031;-89
2022/10/07 01:38:51;;;;;;;26.45;6.85;;;;;;;7.41;100.00;102605.59;5342286;27;20396;-89
2022/10/07 01:41:24;;;;;;;21.65;5.80;;;;;;;7.42;100.00;102602.00;5340183;27;20024;-89
2022/10/07 01:43:57;;;;;;;24.00;5.70;;;;;;;7.38;100.00;102606.63;5334353;27;20036;-89
2022/10/07 01:46:30;;;;;;;18.65;5.50;;;;;;;7.39;100.00;102587.06;5353098;27;20034;-93
2022/10/07 01:49:01;;;;;;;18.98;6.20;;;;;;;7.40;100.00;102580.00;5358678;27;20020;-90
2022/10/07 01:51:36;;;;;;;19.60;5.82;;;;;;;7.43;100.00;102573.66;5331946;27;20082;-90
2022/10/07 01:54:29;;;;;;;26.58;5.55;;;;;;;7.46;100.00;102576.16;5335569;27;20058;-91
2022/10/07 01:57:12;;;;;;;26.17;7.15;;;;;;;7.45;100.00;102569.13;5336427;27;20107;-91
2022/10/07 02:00:13;;;;;;;19.70;6.13;;;;;;;7.46;100.00;102562.88;5336286;27;20031;-90
2022/10/07 02:02:50;;;;;;;23.45;6.47;;;;;;;7.48;100.00;102558.34;5317732;27;20423;-90
2022/10/07 02:05:45;;;;;;;22.70;6.75;;;;;;;7.52;100.00;102558.09;5340223;27;20106;-90
2022/10/07 02:08:41;;;;;;;26.70;7.93;;;;;;;7.48;100.00;102551.22;5343428;27;20051;-90
2022/10/07 02:11:36;;;;;;;17.52;6.20;;;;;;;7.50;100.00;102553.81;5341766;27;20100;-90
2022/10/07 02:14:15;;;;;;;21.50;7.07;;;;;;;7.42;100.00;102548.06;5344356;27;20055;-90
2022/10/07 02:16:50;;;;;;;20.52;6.53;;;;;;;7.39;100.00;102544.59;5353582;27;20910;-90
2022/10/07 02:19:27;;;;;;;19.15;6.25;;;;;;;7.42;100.00;102548.91;5353115;27;20024;-90
2022/10/07 02:22:01;;;;;;;22.67;6.70;;;;;;;7.39;100.00;102549.91;5348435;27;20043;-90
2022/10/07 02:24:36;;;;;;;25.00;8.02;;;;;;;7.39;100.00;102547.25;5332833;27;20015;-90
2022/10/07 02:27:11;;;;;;;19.05;6.95;;;;;;;7.36;100.00;102541.25;5354382;27;20045;-90
2022/10/07 02:29:45;;;;;;;20.35;6.97;;;;;;;7.44;100.00;102543.50;5325788;27;20043;-90
2022/10/07 02:32:21;;;;;;;25.60;7.95;;;;;;;7.43;100.00;102531.16;5344305;27;20028;-90
2022/10/07 02:34:57;;;;;;;21.75;6.45;;;;;;;7.42;100.00;102529.47;5344178;27;20394;-90
2022/10/07 02:37:34;;;;;;;25.98;7.20;;;;;;;7.40;100.00;102526.91;5340868;27;20023;-90
2022/10/07 02:40:06;;;;;;;20.15;6.65;;;;;;;7.47;100.00;102525.63;5339017;27;20412;-90
2022/10/07 02:42:52;;;;;;;26.30;7.38;;;;;;;7.44;100.00;102523.13;5341043;27;20031;-90
2022/10/07 02:45:30;;;;;;;29.25;7.88;;;;;;;7.41;100.00;102517.97;5337899;27;20058;-90
2022/10/07 02:48:14;;;;;;;18.70;6.38;;;;;;;7.38;100.00;102518.13;5341309;27;20103;-90
2022/10/07 02:50:50;;;;;;;20.92;6.35;;;;;;;7.31;100.00;102509.66;5339949;27;20028;-90
2022/10/07 02:53:25;;;;;;;25.87;6.50;;;;;;;7.29;100.00;102511.53;5340413;27;20028;-90
2022/10/07 02:56:00;;;;;;;20.60;7.43;;;;;;;7.20;100.00;102496.06;5341530;27;20035;-90
2022/10/07 02:58:33;;;;;;;17.88;6.93;;;;;;;7.19;100.00;102494.38;5340927;27;20027;-90
2022/10/07 03:01:07;;;;;;;22.55;6.15;;;;;;;7.20;100.00;102498.72;5337956;27;20482;-90
2022/10/07 03:03:39;;;;;;;21.13;7.07;;;;;;;7.13;100.00;102494.66;5324443;27;20110;-90
2022/10/07 03:06:16;;;;;;;22.13;6.70;;;;;;;7.13;100.00;102492.03;5338729;27;20099;-90
2022/10/07 03:08:48;;;;;;;22.80;6.63;;;;;;;7.08;100.00;102497.59;5343998;27;20464;-90
2022/10/07 03:11:20;;;;;;;18.95;6.72;;;;;;;7.05;100.00;102484.47;5341332;27;20059;-90
2022/10/07 03:13:51;;;;;;;20.95;6.93;;;;;;;7.09;100.00;102495.78;5335119;27;20023;-90
2022/10/07 03:16:23;;;;;;;20.42;6.20;;;;;;;7.08;100.00;102489.63;5342476;27;20016;-89
2022/10/07 03:18:54;;;;;;;21.75;7.25;;;;;;;7.07;100.00;102485.25;5344925;27;20027;-89
2022/10/07 03:21:26;;;;;;;22.15;7.18;;;;;;;7.09;100.00;102479.84;5325090;27;20363;-89
2022/10/07 03:24:03;;;;;;;28.45;6.82;;;;;;;7.11;100.00;102485.94;5342502;27;20028;-90
2022/10/07 03:26:34;;;;;;;21.63;6.82;;;;;;;7.04;100.00;102477.44;5325874;27;20028;-88
2022/10/07 03:29:07;;;;;;;18.65;6.30;;;;;;;7.00;100.00;102468.78;5326951;27;20023;-88
2022/10/07 03:31:41;;;;;;;33.00;7.90;;;;;;;7.04;100.00;102472.13;5347737;27;20055;-90
2022/10/07 03:34:12;;;;;;;21.90;6.82;;;;;;;7.05;100.00;102468.53;5344970;27;20133;-89
2022/10/07 03:36:44;;;;;;;16.58;6.03;;;;;;;7.00;100.00;102474.06;5319606;27;20016;-89
2022/10/07 03:39:15;;;;;;;19.58;7.20;;;;;;;7.08;100.00;102480.78;5334082;27;20032;-89
2022/10/07 03:41:48;;;;;;;34.28;7.15;;;;;;;7.03;100.00;102473.06;5338216;27;20043;-89
2022/10/07 03:44:21;;;;;;;22.00;7.28;;;;;;;7.02;100.00;102471.34;5331523;27;20020;-89
2022/10/07 03:46:52;;;;;;;29.38;6.50;;;;;;;6.93;100.00;102471.84;5334285;27;20038;-89
2022/10/07 03:49:23;;;;;;;23.27;6.72;;;;;;;6.89;100.00;102463.19;5334877;27;20032;-89
2022/10/07 03:51:55;;;;;;;28.38;7.20;;;;;;;6.82;100.00;102461.78;5336309;27;20020;-90
2022/10/07 03:54:27;;;;;;;22.38;7.57;;;;;;;6.82;100.00;102459.97;5337960;27;20035;-89
2022/10/07 03:56:59;;;;;;;18.55;7.07;;;;;;;6.80;100.00;102459.19;5333613;27;20047;-89
2022/10/07 03:59:31;;;;;;;26.30;8.65;;;;;;;6.77;100.00;102459.34;5315582;27;20052;-90
2022/10/07 04:02:03;;;;;;;20.60;7.45;;;;;;;6.80;100.00;102464.50;5335623;27;20015;-90
2022/10/07 04:04:35;;;;;;;28.55;7.95;;;;;;;6.80;100.00;102455.66;5335085;27;20059;-90
2022/10/07 04:07:07;;;;;;;21.95;7.05;;;;;;;6.78;100.00;102450.47;5335799;27;20059;-90
2022/10/07 04:09:38;;;;;;;30.52;8.20;;;;;;;6.79;100.00;102452.16;5336776;27;20055;-90
2022/10/07 04:12:09;;;;;;;23.73;8.00;;;;;;;6.77;100.00;102453.19;5331266;27;20378;-90
2022/10/07 04:14:41;;;;;;;27.05;8.93;;;;;;;6.75;100.00;102447.97;5333962;27;20119;-91
2022/10/07 04:17:12;;;;;;;22.55;7.53;;;;;;;6.87;100.00;102448.25;5338684;27;20377;-91
2022/10/07 04:19:44;;;;;;;21.02;6.85;;;;;;;6.84;100.00;102451.94;5323740;27;20089;-90
2022/10/07 04:22:16;;;;;;;30.83;8.15;;;;;;;6.78;100.00;102437.22;5337654;27;20146;-90
2022/10/07 04:25:32;;;;;;;25.95;8.32;;;;;;;6.83;100.00;102434.31;5343901;27;20019;-90
2022/10/07 04:27:39;;;;;;;28.45;8.73;;;;;;;6.86;100.00;102449.22;5337685;27;20523;-90
2022/10/07 04:30:11;;;;;;;26.35;7.55;;;;;;;6.87;100.00;102446.47;5327091;27;20114;-90
2022/10/07 04:32:42;;;;;;;24.50;8.23;;;;;;;6.78;100.00;102444.28;5323128;27;20012;-89
2022/10/07 04:35:13;;;;;;;25.73;8.75;;;;;;;6.71;100.00;102445.53;5339975;27;20084;-89
2022/10/07 04:37:49;;;;;;;25.58;7.47;;;;;;;7.00;100.00;102444.03;5338037;27;20020;-89
2022/10/07 04:40:21;;;;;;;26.50;8.50;;;;;;;7.16;100.00;102452.06;5316224;27;20042;-89
2022/10/07 04:45:43;;;;;;;31.73;9.43;;;;;;;7.35;100.00;102451.94;5338458;27;20389;-89
2022/10/07 04:48:17;;;;;;;25.60;8.27;;;;;;;7.74;100.00;102448.91;5341130;27;20039;-89
2022/10/07 04:50:51;;;;;;;31.27;10.32;;;;;;;7.54;100.00;102433.22;5340712;27;20036;-89
2022/10/07 04:53:22;;;;;;;25.48;9.75;;;;;;;7.76;100.00;102435.53;5321278;27;20819;-89
2022/10/07 04:55:53;;;;;;;30.23;9.95;;;;;;;7.90;100.00;102440.94;5341460;27;20019;-89
2022/10/07 04:58:26;;;;;;;26.80;9.90;;;;;;;7.28;100.00;102429.31;5345551;27;20028;-89
2022/10/07 05:00:59;;;;;;;18.63;7.75;;;;;;;7.16;100.00;102428.19;5340837;27;20019;-89
2022/10/07 05:03:30;;;;;;;34.63;9.07;;;;;;;6.99;100.00;102423.75;5319186;27;20057;-89
2022/10/07 05:06:05;;;;;;;27.08;7.90;;;;;;;6.90;100.00;102432.19;5320235;27;20027;-90
2022/10/07 05:08:36;;;;;;;24.58;7.78;;;;;;;6.80;100.00;102422.06;5324192;27;20024;-91
2022/10/07 05:11:08;;;;;;;22.58;7.45;;;;;;;6.75;100.00;102425.88;5326360;27;20051;-91
2022/10/07 05:13:39;;;;;;;23.55;7.15;;;;;;;6.72;100.00;102432.19;5352692;27;20028;-91
2022/10/07 05:16:11;;;;;;;21.20;8.32;;;;;;;6.66;100.00;102415.75;5335252;27;20039;-89
2022/10/07 05:18:42;;;;;;;22.55;7.10;;;;;;;6.71;100.00;102427.81;5328317;27;20152;-90
2022/10/07 05:21:14;;;;;;;19.55;7.85;;;;;;;6.54;100.00;102420.75;5339232;27;20104;-87
2022/10/07 05:23:45;;;;;;;28.52;7.93;;;;;;;6.59;100.00;102421.38;5341402;27;20385;-87
2022/10/07 05:26:16;;;;;;;17.02;7.47;;;;;;;6.65;100.00;102416.69;5336274;27;20032;-87
2022/10/07 05:28:48;;;;;;;25.95;7.60;;;;;;;6.60;100.00;102416.91;5321911;27;20024;-89
2022/10/07 05:31:19;;;;;;;27.50;7.85;;;;;;;6.58;100.00;102411.69;5324038;27;20036;-91
2022/10/07 05:33:51;;;;;;;25.02;8.00;;;;;;;6.57;100.00;102401.16;5340761;27;20162;-89
2022/10/07 05:36:22;;;;;;;22.88;6.47;;;;;;;6.55;100.00;102405.69;5322068;27;20020;-87
2022/10/07 05:38:56;;;;;;;26.38;7.43;;;;;;;6.62;100.00;102409.75;5327670;27;20366;-89
2022/10/07 05:41:28;;;;;;;26.05;7.22;;;;;;;6.68;100.00;102408.56;5323248;27;20492;-88
2022/10/07 05:44:00;;;;;;;19.00;6.38;;;;;;;6.65;100.00;102400.78;5339129;27;20031;-91
2022/10/07 05:46:31;;;;;;;19.15;7.07;;;;;;;6.63;100.00;102406.16;5355051;27;20040;-91
2022/10/07 05:49:02;;;;;;;27.80;6.90;;;;;;;6.57;100.00;102407.34;5349915;27;20024;-89
2022/10/07 05:51:34;;;;;;;29.40;7.85;;;;;;;6.60;100.00;102406.31;5346572;27;20012;-89
2022/10/07 05:54:05;;;;;;;21.05;6.40;;;;;;;6.58;100.00;102398.44;5359981;27;20032;-89
2022/10/07 05:56:36;;;;;;;23.80;6.88;;;;;;;6.64;100.00;102410.50;5363363;27;20023;-88
2022/10/07 05:59:09;;;;;;;22.52;7.28;;;;;;;6.66;100.00;102395.38;5360265;27;20032;-88
2022/10/07 06:01:41;;;;;;;20.50;6.53;;;;;;;6.63;100.00;102403.50;5360819;27;20015;-88
2022/10/07 06:04:13;;;;;;;18.80;6.25;;;;;;;6.64;100.00;102397.25;5356522;27;20035;-88
2022/10/07 06:06:45;;;;;;;20.92;6.68;;;;;;;6.67;100.00;102390.94;5357340;27;20027;-89
2022/10/07 06:14:59;;;;;;;24.35;6.55;;;;;;;6.89;100.00;102390.69;5353844;27;20036;-88
2022/10/07 06:17:30;;;;;;;23.83;5.50;;;;;;;7.00;100.00;102388.34;5345583;27;20070;-88
2022/10/07 06:20:01;;;;;;;20.52;5.90;;;;;;;7.03;100.00;102385.53;5345534;27;20024;-89
2022/10/07 06:22:33;;;;;;;28.05;6.40;;;;;;;7.14;100.00;102390.25;5328173;27;20028;-88
2022/10/07 06:25:05;;;;;;;20.80;5.43;;;;;;;7.17;100.00;102385.63;5321313;27;20059;-88
2022/10/07 06:27:36;;;;;;;22.60;5.50;;;;;;;7.24;100.00;102382.63;5334438;27;20031;-88
2022/10/07 06:30:08;;;;;;;16.05;5.53;;;;;;;7.37;100.00;102384.53;5337976;27;20039;-90
2022/10/07 06:32:39;;;;;;;18.60;5.75;;;;;;;7.43;100.00;102387.81;5340154;27;20106;-82
2022/10/07 06:35:10;;;;;;;23.25;5.45;;;;;;;7.44;100.00;102377.09;5338795;27;20058;-81
2022/10/07 06:37:42;;;;;;;22.85;5.53;;;;;;;7.49;100.00;102367.09;5338286;27;20100;-80
2022/10/07 06:40:13;;;;;;;18.20;4.97;;;;;;;7.65;100.00;102390.13;5338998;27;20036;-81
2022/10/07 06:42:44;;;;;;;21.40;4.63;;;;;;;7.75;100.00;102380.72;5339340;27;20032;-81
2022/10/07 06:45:16;;;;;;;18.98;5.00;;;;;;;7.85;100.00;102386.34;5338721;27;20050;-81
2022/10/07 06:47:47;;;;;;;18.02;4.90;;;;;;;7.94;100.00;102377.84;5339486;27;20145;-81
2022/10/07 06:50:18;;;;;;;21.83;5.53;;;;;;;8.08;100.00;102385.91;5340188;27;20083;-81
2022/10/07 06:52:49;;;;;;;8.77;4.10;;;;;;;8.31;100.00;102384.56;5338303;27;20137;-81
2022/10/07 06:55:21;;;;;;;14.77;4.47;;;;;;;8.85;100.00;102383.19;5340391;27;20035;-80
2022/10/07 06:57:53;;;;;;;17.10;5.40;;;;;;;9.35;100.00;102387.19;5334385;27;20020;-81
2022/10/07 07:00:24;;;;;;;14.27;4.00;;;;;;;9.98;100.00;102384.94;5336668;27;20126;-81
2022/10/07 07:03:00;;;;;;;15.60;3.80;;;;;;;10.57;100.00;102389.91;5320024;27;20023;-82
2022/10/07 07:05:34;;;;;;;11.87;4.10;;;;;;;11.19;100.00;102391.00;5339405;27;20043;-81
2022/10/07 07:08:06;;;;;;;14.30;4.45;;;;;;;11.47;100.00;102385.41;5315122;27;20045;-84
2022/10/07 07:10:39;;;;;;;9.95;3.22;;;;;;;11.71;100.00;102365.84;5340841;27;20410;-84
2022/10/07 07:13:11;;;;;;;10.98;3.05;;;;;;;12.06;100.00;102368.63;5346393;27;20031;-84
2022/10/07 07:15:52;;;;;;;9.50;3.33;;;;;;;12.63;100.00;102371.47;5344998;27;20027;-83
2022/10/07 07:18:23;;;;;;;11.98;3.53;;;;;;;12.89;100.00;102366.78;5344771;27;20110;-83
2022/10/07 07:21:01;;;;;;;10.45;3.75;;;;;;;13.00;100.00;102379.31;5347171;27;20516;-84
2022/10/07 07:23:32;;;;;;;12.30;3.38;;;;;;;13.23;100.00;102380.16;5327844;27;20020;-84
2022/10/07 07:26:03;;;;;;;13.73;3.35;;;;;;;13.53;100.00;102381.38;5309348;27;20111;-85
2022/10/07 07:28:34;;;;;;;15.55;3.60;;;;;;;13.76;100.00;102377.69;5342104;27;20441;-85
2022/10/07 07:31:11;;;;;;;14.02;3.45;;;;;;;14.38;100.00;102377.94;5343257;27;20046;-86
2022/10/07 07:33:42;;;;;;;14.55;3.97;;;;;;;14.63;100.00;102374.03;5318494;27;20020;-85
2022/10/07 07:36:15;;;;;;;12.50;3.42;;;;;;;15.03;100.00;102370.59;5340678;27;20024;-88
2022/10/07 07:38:51;;;;;;;13.50;3.13;;;;;;;15.46;100.00;102384.75;5337268;27;20118;-84
2022/10/07 07:41:27;;;;;;;8.43;3.17;;;;;;;15.36;100.00;102365.03;5339496;27;20126;-84
2022/10/07 07:44:01;;;;;;;10.63;3.70;;;;;;;15.47;100.00;102364.94;5339339;27;20024;-84
2022/10/07 07:46:35;;;;;;;11.70;3.40;;;;;;;16.17;100.00;102373.81;5341969;27;20032;-84
2022/10/07 07:49:09;;;;;;;15.02;4.05;;;;;;;16.00;100.00;102363.78;5339528;27;20514;-83
2022/10/07 07:51:41;;;;;;;11.23;2.83;;;;;;;16.68;100.00;102362.84;5339939;27;20043;-84
2022/10/07 07:54:13;;;;;;;10.63;3.10;;;;;;;16.20;100.00;102365.47;5344507;27;20385;-83
2022/10/07 07:56:44;;;;;;;13.57;3.53;;;;;;;16.35;100.00;102359.66;5343059;27;20111;-83
2022/10/07 07:59:16;;;;;;;13.20;2.90;;;;;;;16.26;100.00;102366.75;5343588;27;20424;-84
2022/10/07 08:01:47;;;;;;;11.63;3.10;;;;;;;16.84;100.00;102356.88;5341906;27;20077;-84
2022/10/07 08:04:18;;;;;;;8.95;2.63;;;;;;;16.95;100.00;102368.34;5341875;27;20105;-84
2022/10/07 08:06:50;;;;;;;12.93;3.63;;;;;;;17.44;100.00;102369.94;5342118;27;20385;-84
2022/10/07 08:09:21;;;;;;;13.82;3.78;;;;;;;17.33;100.00;102371.00;5343202;27;20028;-84
2022/10/07 08:11:53;;;;;;;11.65;3.42;;;;;;;17.65;100.00;102366.97;5342972;27;20506;-83
2022/10/07 08:14:24;;;;;;;12.77;3.20;;;;;;;17.80;100.00;102365.47;5348886;27;20012;-84
2022/10/07 08:16:57;;;;;;;15.68;2.97;;;;;;;17.62;100.00;102362.75;5349426;27;20379;-84
2022/10/07 08:19:29;;;;;;;8.90;2.85;;;;;;;18.08;100.00;102350.06;5342932;27;20024;-84
2022/10/07 08:22:00;;;;;;;11.75;2.90;;;;;;;18.63;100.00;102348.94;5338584;27;20069;-83
2022/10/07 08:24:31;;;;;;;12.75;2.80;;;;;;;19.05;100.00;102350.91;5343869;27;20027;-84
2022/10/07 08:27:03;;;;;;;19.35;4.18;;;;;;;19.35;100.00;102347.81;5343849;27;20064;-84
2022/10/07 08:29:34;;;;;;;14.60;3.55;;;;;;;18.62;100.00;102349.97;5343471;27;20024;-83
2022/10/07 08:32:05;;;;;;;13.10;3.47;;;;;;;19.16;100.00;102348.91;5344869;27;20028;-83
2022/10/07 08:34:37;;;;;;;10.30;2.80;;;;;;;19.86;100.00;102351.34;5323159;27;20028;-83
2022/10/07 08:37:08;;;;;;;10.52;3.50;;;;;;;20.45;100.00;102337.63;5343333;27;20031;-83
2022/10/07 08:39:39;;;;;;;10.32;3.33;;;;;;;20.93;100.00;102345.84;5342761;27;43231;-83
2022/10/07 08:42:22;;;;;;;11.55;3.35;;;;;;;21.55;100.00;102347.81;5346827;27;20386;-83
2022/10/07 08:44:54;;;;;;;9.85;3.33;;;;;;;21.12;100.00;102347.28;5343479;27;20110;-83
2022/10/07 08:47:25;;;;;;;11.93;2.70;;;;;;;21.06;100.00;102335.28;5344644;27;20020;-83
2022/10/07 08:50:17;;;;;;;13.07;2.83;;;;;;;21.84;100.00;102328.06;5344111;27;20081;-83
2022/10/07 08:53:02;;;;;;;12.10;3.28;;;;;;;23.00;100.00;102320.50;5349572;27;20039;-83
2022/10/07 08:55:44;;;;;;;10.75;3.30;;;;;;;22.83;100.00;102329.91;5344858;27;20039;-83
2022/10/07 08:58:46;;;;;;;15.40;3.42;;;;;;;23.25;100.00;102306.59;5344024;27;20027;-84
2022/10/07 09:01:29;;;;;;;11.07;2.55;;;;;;;22.98;100.00;102319.00;5342254;27;20077;-83
2022/10/07 09:04:17;;;;;;;9.52;3.00;;;;;;;21.57;100.00;102315.88;5340522;27;20081;-83
2022/10/07 09:06:55;;;;;;;12.57;3.13;;;;;;;21.20;100.00;102312.00;5339336;27;20534;-83
2022/10/07 09:09:58;;;;;;;9.35;2.60;;;;;;;21.46;100.00;102306.28;5339756;27;20448;-83
2022/10/07 09:12:41;;;;;;;8.93;2.60;;;;;;;22.43;100.00;102293.97;5342021;27;20039;-83
2022/10/07 09:15:29;;;;;;;15.57;3.90;;;;;;;23.67;100.00;102298.69;5320290;27;20034;-83
2022/10/07 09:18:09;;;;;;;10.50;3.58;;;;;;;23.48;100.00;102306.44;5339671;27;20389;-83
2022/10/07 09:20:45;;;;;;;12.88;3.08;;;;;;;22.63;100.00;102300.56;5322492;27;20031;-83
2022/10/07 09:23:18;;;;;;;8.85;2.83;;;;;;;23.28;100.00;102297.19;5343331;27;20028;-83
2022/10/07 09:25:50;;;;;;;11.20;3.20;;;;;;;23.88;100.00;102292.41;5346458;27;20114;-83
2022/10/07 09:28:31;;;;;;;9.30;2.63;;;;;;;24.57;100.00;102290.84;5346423;27;20076;-83
2022/10/07 09:31:02;;;;;;;10.80;3.25;;;;;;;24.49;93.40;102292.66;5346857;27;20035;-83
2022/10/07 09:33:41;;;;;;;7.53;2.55;;;;;;;24.39;100.00;102286.72;5326949;27;20020;-83
2022/10/07 09:36:17;;;;;;;9.55;2.97;;;;;;;22.85;100.00;102282.41;5346028;27;20111;-83
2022/10/07 09:38:51;;;;;;;11.38;3.10;;;;;;;23.07;100.00;102284.41;5344261;27;20047;-83
2022/10/07 09:41:30;;;;;;;13.38;3.47;;;;;;;24.16;100.00;102279.63;5346861;27;20024;-83
2022/10/07 09:44:16;;;;;;;11.30;3.35;;;;;;;25.76;93.01;102275.94;5346538;27;20031;-83
2022/10/07 09:46:50;;;;;;;10.68;3.05;;;;;;;24.59;100.00;102280.56;5326088;27;20058;-84
2022/10/07 09:49:28;;;;;;;14.68;2.70;;;;;;;24.48;93.64;102268.31;5327061;27;20028;-83
2022/10/07 09:52:22;;;;;;;13.98;2.90;;;;;;;24.48;92.69;102265.59;5346495;27;20039;-83
2022/10/07 09:54:55;;;;;;;10.55;3.15;;;;;;;24.66;86.47;102271.38;5346236;27;20049;-83
2022/10/07 09:57:27;;;;;;;12.45;2.60;;;;;;;24.58;90.17;102267.97;5318254;27;20027;-83
2022/10/07 10:00:13;;;;;;;15.43;3.20;;;;;;;25.19;97.66;102259.00;5345490;27;20427;-83
2022/10/07 10:03:01;;;;;;;12.45;3.13;;;;;;;25.42;88.07;102255.91;5342480;27;20257;-83
2022/10/07 10:05:37;;;;;;;13.65;2.97;;;;;;;25.85;79.42;102256.38;5345616;27;20023;-83
2022/10/07 10:08:12;;;;;;;11.02;3.00;;;;;;;26.78;74.07;102252.66;5342619;27;20024;-83
2022/10/07 10:10:52;;;;;;;11.25;2.90;;;;;;;25.88;74.59;102251.53;5324099;27;20052;-83
2022/10/07 10:13:30;;;;;;;9.88;2.95;;;;;;;25.48;89.94;102252.38;5346062;27;20028;-84
2022/10/07 10:16:04;;;;;;;11.20;2.75;;;;;;;27.21;70.62;102236.66;5322031;27;20031;-84
2022/10/07 10:18:40;;;;;;;14.75;3.28;;;;;;;26.94;73.10;102239.53;5344261;27;20574;-84
2022/10/07 10:21:24;;;;;;;8.18;2.33;;;;;;;27.15;81.38;102239.22;5342226;27;20027;-84
2022/10/07 10:24:09;;;;;;;14.63;3.67;;;;;;;26.36;91.03;102222.06;5344476;27;20438;-84
2022/10/07 10:27:08;;;;;;;12.00;2.83;;;;;;;26.54;79.86;102226.84;5344099;27;20038;-84
2022/10/07 10:29:53;;;;;;;10.63;3.10;;;;;;;26.31;72.10;102216.38;5319911;27;20025;-84
2022/10/07 10:32:43;;;;;;;12.87;3.03;;;;;;;27.84;63.15;102217.47;5339630;27;20540;-84
2022/10/07 10:35:26;;;;;;;10.45;2.78;;;;;;;28.54;62.74;102209.97;5339725;27;20409;-84
2022/10/07 10:38:20;;;;;;;11.55;2.65;;;;;;;28.48;74.73;102200.78;5339406;27;20022;-84
2022/10/07 10:41:19;;;;;;;14.65;3.47;;;;;;;28.73;67.91;102205.34;5339227;27;20111;-84
2022/10/07 10:44:09;;;;;;;11.73;3.25;;;;;;;28.16;58.44;102186.38;5341295;27;20034;-84
2022/10/07 10:47:11;;;;;;;9.73;2.63;;;;;;;28.98;61.17;102186.84;5342459;27;20058;-84
2022/10/07 10:49:53;;;;;;;8.77;2.40;;;;;;;27.56;62.94;102185.03;5331218;27;20024;-85
2022/10/07 10:52:36;;;;;;;11.00;2.47;;;;;;;26.09;60.36;102177.53;5327855;27;20089;-84
2022/10/07 10:55:26;;;;;;;11.48;3.25;;;;;;;25.13;79.95;102188.84;5323025;27;20020;-84
2022/10/07 10:58:23;;;;;;;14.43;2.63;;;;;;;25.65;69.46;102181.78;5345995;27;20376;-84
2022/10/07 11:01:08;;;;;;;8.27;2.42;;;;;;;25.34;77.22;102172.31;5327917;27;20460;-84
2022/10/07 11:04:04;;;;;;;10.27;3.20;;;;;;;25.79;71.77;102161.59;5345480;27;20046;-84
2022/10/07 11:06:39;;;;;;;9.20;2.30;;;;;;;26.74;63.46;102165.75;5346497;27;20081;-84
2022/10/07 11:09:16;;;;;;;9.70;2.50;;;;;;;25.47;69.81;102161.41;5338631;27;20096;-84
2022/10/07 11:11:48;;;;;;;10.68;2.78;;;;;;;25.78;68.21;102154.44;5326094;27;20043;-84
2022/10/07 11:14:21;;;;;;;10.93;2.60;;;;;;;25.41;71.27;102158.66;5345858;27;20047;-84
2022/10/07 11:17:00;;;;;;;11.65;2.90;;;;;;;26.07;64.52;102152.31;5346223;27;20107;-85
2022/10/07 11:19:37;;;;;;;11.38;2.70;;;;;;;25.99;63.77;102147.91;5318190;27;20404;-85
2022/10/07 11:22:20;;;;;;;12.25;2.33;;;;;;;25.96;77.58;102140.13;5324927;27;20020;-85
2022/10/07 11:24:56;;;;;;;11.98;2.50;;;;;;;25.08;68.05;102140.34;5344265;27;20059;-85
2022/10/07 11:27:27;;;;;;;;;;;;;;;27.88;62.37;102139.19;5344470;27;20035;-86
2022/10/07 11:30:01;;;;;;;7.67;2.33;;;;;;;26.14;69.86;102125.81;5326837;27;19915;-85
2022/10/07 11:32:43;;;;;;;10.45;2.65;;;;;;;28.01;57.52;102123.69;5336913;27;20474;-85
2022/10/07 11:35:22;;;;;;;12.45;2.60;;;;;;;27.35;56.29;102113.13;5322527;28;20101;-86
2022/10/07 11:37:59;;;;;;;9.48;2.40;;;;;;;26.37;60.24;102113.50;5323268;28;20024;-85
2022/10/07 11:40:33;;;;;;;10.25;2.70;;;;;;;26.25;60.32;102102.41;5342204;27;20143;-86
2022/10/07 11:43:17;;;;;;;15.52;3.03;;;;;;;26.52;67.80;102094.06;5343295;27;20032;-86
2022/10/07 11:45:54;;;;;;;21.77;3.22;;;;;;;27.58;60.98;102089.75;5323987;28;20845;-86
2022/10/07 11:48:51;;;;;;;8.98;2.60;;;;;;;26.60;55.89;102102.03;5327176;27;20537;-87
2022/10/07 11:51:45;;;;;;;;;;;;;;;27.89;55.35;102091.50;5317181;27;20038;-86
2022/10/07 11:54:23;;;;;;;7.90;2.35;;;;;;;26.19;60.14;102076.78;5331907;27;20343;-86
2022/10/07 11:56:59;;;;;;;10.48;2.92;;;;;;;26.03;61.65;102074.50;5347475;27;20065;-85
2022/10/07 11:59:50;;;;;;;;;;;;;;;28.07;54.34;102067.94;5343404;27;20047;-86
2022/10/07 12:02:45;;;;;;;9.55;2.42;;;;;;;28.14;56.82;102068.69;5339562;27;19937;-85
2022/10/07 12:05:35;;;;;;;11.23;2.55;;;;;;;28.10;62.27;102059.22;5326096;27;20035;-85
2022/10/07 12:08:39;;;;;;;10.00;2.17;;;;;;;27.24;58.11;102056.28;5306331;28;20710;-85